sensor_id;sensor_type;location;lat;lon;timestamp;P1;durP1;ratioP1;P2;durP2;ratioP2
51840;SDS011;37888;53.246;6.658;2023-07-28T00:02:24;16.13;;;7.90;;
51840;SDS011;37888;53.246;6.658;2023-07-28T00:04:50;15.25;;;8.10;;
51840;SDS011;37888;53.246;6.658;2023-07-28T00:07:17;16.20;;;7.53;;
51840;SDS011;37888;53.246;6.658;2023-07-28T00:09:46;19.40;;;7.75;;
51840;SDS011;37888;53.246;6.658;2023-07-28T00:12:12;17.45;;;8.38;;
51840;SDS011;37888;53.246;6.658;2023-07-28T00:14:38;17.77;;;8.10;;
51840;SDS011;37888;53.246;6.658;2023-07-28T00:17:04;16.90;;;8.35;;
51840;SDS011;37888;53.246;6.658;2023-07-28T00:19:33;16.67;;;8.98;;
51840;SDS011;37888;53.246;6.658;2023-07-28T00:21:59;21.92;;;8.52;;
51840;SDS011;37888;53.246;6.658;2023-07-28T00:24:25;21.00;;;8.90;;
51840;SDS011;37888;53.246;6.658;2023-07-28T00:26:53;20.08;;;9.45;;
51840;SDS011;37888;53.246;6.658;2023-07-28T00:29:19;18.00;;;9.10;;
51840;SDS011;37888;53.246;6.658;2023-07-28T00:31:45;18.23;;;8.98;;
51840;SDS011;37888;53.246;6.658;2023-07-28T00:34:11;15.40;;;8.10;;
51840;SDS011;37888;53.246;6.658;2023-07-28T00:36:37;17.23;;;9.15;;
51840;SDS011;37888;53.246;6.658;2023-07-28T00:39:02;14.68;;;8.20;;
51840;SDS011;37888;53.246;6.658;2023-07-28T00:41:32;15.55;;;8.20;;
51840;SDS011;37888;53.246;6.658;2023-07-28T00:44:01;14.63;;;7.85;;
51840;SDS011;37888;53.246;6.658;2023-07-28T00:46:29;13.75;;;7.85;;
51840;SDS011;37888;53.246;6.658;2023-07-28T00:48:56;12.98;;;7.57;;
51840;SDS011;37888;53.246;6.658;2023-07-28T00:51:22;15.93;;;8.27;;
51840;SDS011;37888;53.246;6.658;2023-07-28T00:53:48;13.13;;;8.38;;
51840;SDS011;37888;53.246;6.658;2023-07-28T00:56:14;17.60;;;8.57;;
51840;SDS011;37888;53.246;6.658;2023-07-28T00:58:43;12.60;;;7.95;;
51840;SDS011;37888;53.246;6.658;2023-07-28T01:01:09;16.40;;;8.38;;
51840;SDS011;37888;53.246;6.658;2023-07-28T01:03:35;18.67;;;8.75;;
51840;SDS011;37888;53.246;6.658;2023-07-28T01:06:10;20.50;;;8.45;;
51840;SDS011;37888;53.246;6.658;2023-07-28T01:11:15;19.20;;;8.30;;
51840;SDS011;37888;53.246;6.658;2023-07-28T01:13:44;17.75;;;9.32;;
51840;SDS011;37888;53.246;6.658;2023-07-28T01:16:14;17.67;;;9.52;;
51840;SDS011;37888;53.246;6.658;2023-07-28T01:18:40;15.13;;;8.73;;
51840;SDS011;37888;53.246;6.658;2023-07-28T01:21:08;15.82;;;8.73;;
51840;SDS011;37888;53.246;6.658;2023-07-28T01:26:31;17.77;;;9.00;;
51840;SDS011;37888;53.246;6.658;2023-07-28T01:28:59;16.60;;;8.30;;
51840;SDS011;37888;53.246;6.658;2023-07-28T01:31:26;13.00;;;8.00;;
51840;SDS011;37888;53.246;6.658;2023-07-28T01:33:54;16.70;;;9.00;;
51840;SDS011;37888;53.246;6.658;2023-07-28T01:36:20;16.42;;;8.98;;
51840;SDS011;37888;53.246;6.658;2023-07-28T01:38:46;16.33;;;9.82;;
51840;SDS011;37888;53.246;6.658;2023-07-28T01:41:12;12.25;;;8.85;;
51840;SDS011;37888;53.246;6.658;2023-07-28T01:43:38;14.65;;;9.48;;
51840;SDS011;37888;53.246;6.658;2023-07-28T01:46:04;21.38;;;9.73;;
51840;SDS011;37888;53.246;6.658;2023-07-28T01:48:30;16.42;;;9.52;;
51840;SDS011;37888;53.246;6.658;2023-07-28T01:50:59;17.80;;;9.30;;
51840;SDS011;37888;53.246;6.658;2023-07-28T01:53:30;18.40;;;9.75;;
51840;SDS011;37888;53.246;6.658;2023-07-28T01:55:59;14.80;;;8.38;;
51840;SDS011;37888;53.246;6.658;2023-07-28T01:58:26;27.95;;;10.65;;
51840;SDS011;37888;53.246;6.658;2023-07-28T02:00:52;17.43;;;9.87;;
51840;SDS011;37888;53.246;6.658;2023-07-28T02:03:18;15.43;;;9.40;;
51840;SDS011;37888;53.246;6.658;2023-07-28T02:05:44;19.85;;;9.65;;
51840;SDS011;37888;53.246;6.658;2023-07-28T02:08:10;16.30;;;9.63;;
51840;SDS011;37888;53.246;6.658;2023-07-28T02:10:36;15.40;;;8.63;;
51840;SDS011;37888;53.246;6.658;2023-07-28T02:13:02;15.15;;;8.07;;
51840;SDS011;37888;53.246;6.658;2023-07-28T02:15:30;16.58;;;9.32;;
51840;SDS011;37888;53.246;6.658;2023-07-28T02:17:56;18.58;;;8.68;;
51840;SDS011;37888;53.246;6.658;2023-07-28T02:20:25;13.35;;;8.55;;
51840;SDS011;37888;53.246;6.658;2023-07-28T02:22:51;12.13;;;7.93;;
51840;SDS011;37888;53.246;6.658;2023-07-28T02:25:17;13.18;;;7.97;;
51840;SDS011;37888;53.246;6.658;2023-07-28T02:27:46;10.98;;;6.90;;
51840;SDS011;37888;53.246;6.658;2023-07-28T02:30:14;11.10;;;7.10;;
51840;SDS011;37888;53.246;6.658;2023-07-28T02:32:40;11.95;;;6.72;;
51840;SDS011;37888;53.246;6.658;2023-07-28T02:35:08;9.45;;;6.82;;
51840;SDS011;37888;53.246;6.658;2023-07-28T02:37:35;12.18;;;6.63;;
51840;SDS011;37888;53.246;6.658;2023-07-28T02:40:04;9.35;;;6.10;;
51840;SDS011;37888;53.246;6.658;2023-07-28T02:42:31;10.15;;;6.50;;
51840;SDS011;37888;53.246;6.658;2023-07-28T02:44:59;10.95;;;6.78;;
51840;SDS011;37888;53.246;6.658;2023-07-28T02:47:24;10.55;;;7.00;;
51840;SDS011;37888;53.246;6.658;2023-07-28T02:49:50;9.52;;;6.97;;
51840;SDS011;37888;53.246;6.658;2023-07-28T02:52:19;13.88;;;7.07;;
51840;SDS011;37888;53.246;6.658;2023-07-28T02:54:45;13.73;;;7.30;;
51840;SDS011;37888;53.246;6.658;2023-07-28T02:57:18;13.50;;;8.52;;
51840;SDS011;37888;53.246;6.658;2023-07-28T02:59:44;11.68;;;7.50;;
51840;SDS011;37888;53.246;6.658;2023-07-28T03:02:10;14.20;;;8.05;;
51840;SDS011;37888;53.246;6.658;2023-07-28T03:04:36;13.27;;;7.50;;
51840;SDS011;37888;53.246;6.658;2023-07-28T03:07:02;15.75;;;8.77;;
51840;SDS011;37888;53.246;6.658;2023-07-28T03:09:29;16.33;;;8.75;;
51840;SDS011;37888;53.246;6.658;2023-07-28T03:11:55;15.80;;;8.77;;
51840;SDS011;37888;53.246;6.658;2023-07-28T03:14:21;17.17;;;9.30;;
51840;SDS011;37888;53.246;6.658;2023-07-28T03:16:48;17.08;;;9.60;;
51840;SDS011;37888;53.246;6.658;2023-07-28T03:19:14;15.23;;;8.30;;
51840;SDS011;37888;53.246;6.658;2023-07-28T03:21:40;20.10;;;9.20;;
51840;SDS011;37888;53.246;6.658;2023-07-28T03:24:06;13.75;;;8.93;;
51840;SDS011;37888;53.246;6.658;2023-07-28T03:26:32;15.68;;;8.32;;
51840;SDS011;37888;53.246;6.658;2023-07-28T03:28:58;15.05;;;8.18;;
51840;SDS011;37888;53.246;6.658;2023-07-28T03:31:23;15.25;;;8.82;;
51840;SDS011;37888;53.246;6.658;2023-07-28T03:33:49;19.90;;;8.55;;
51840;SDS011;37888;53.246;6.658;2023-07-28T03:36:15;15.18;;;9.35;;
51840;SDS011;37888;53.246;6.658;2023-07-28T03:38:41;14.73;;;8.88;;
51840;SDS011;37888;53.246;6.658;2023-07-28T03:41:07;13.70;;;8.32;;
51840;SDS011;37888;53.246;6.658;2023-07-28T03:43:33;13.05;;;8.80;;
51840;SDS011;37888;53.246;6.658;2023-07-28T03:45:59;20.30;;;9.80;;
51840;SDS011;37888;53.246;6.658;2023-07-28T03:48:26;19.73;;;9.87;;
51840;SDS011;37888;53.246;6.658;2023-07-28T03:50:52;21.70;;;9.55;;
51840;SDS011;37888;53.246;6.658;2023-07-28T03:53:17;15.10;;;8.65;;
51840;SDS011;37888;53.246;6.658;2023-07-28T03:55:43;15.48;;;9.15;;
51840;SDS011;37888;53.246;6.658;2023-07-28T03:58:09;17.15;;;8.15;;
51840;SDS011;37888;53.246;6.658;2023-07-28T04:00:38;14.65;;;8.48;;
51840;SDS011;37888;53.246;6.658;2023-07-28T04:03:04;13.98;;;8.00;;
51840;SDS011;37888;53.246;6.658;2023-07-28T04:05:30;16.10;;;8.10;;
51840;SDS011;37888;53.246;6.658;2023-07-28T04:07:56;11.82;;;7.47;;
51840;SDS011;37888;53.246;6.658;2023-07-28T04:10:22;14.10;;;7.22;;
51840;SDS011;37888;53.246;6.658;2023-07-28T04:12:48;13.15;;;6.97;;
51840;SDS011;37888;53.246;6.658;2023-07-28T04:15:14;13.80;;;7.80;;
51840;SDS011;37888;53.246;6.658;2023-07-28T04:17:40;17.42;;;7.45;;
51840;SDS011;37888;53.246;6.658;2023-07-28T04:20:06;13.80;;;7.18;;
51840;SDS011;37888;53.246;6.658;2023-07-28T04:22:32;13.50;;;7.30;;
51840;SDS011;37888;53.246;6.658;2023-07-28T04:25:03;14.10;;;6.80;;
51840;SDS011;37888;53.246;6.658;2023-07-28T04:27:29;11.93;;;6.35;;
51840;SDS011;37888;53.246;6.658;2023-07-28T04:29:55;13.38;;;6.18;;
51840;SDS011;37888;53.246;6.658;2023-07-28T04:32:21;13.13;;;6.18;;
51840;SDS011;37888;53.246;6.658;2023-07-28T04:34:50;16.98;;;6.05;;
51840;SDS011;37888;53.246;6.658;2023-07-28T04:37:17;14.15;;;6.03;;
51840;SDS011;37888;53.246;6.658;2023-07-28T04:39:43;12.50;;;6.00;;
51840;SDS011;37888;53.246;6.658;2023-07-28T04:42:10;11.43;;;5.63;;
51840;SDS011;37888;53.246;6.658;2023-07-28T04:44:37;10.02;;;5.80;;
51840;SDS011;37888;53.246;6.658;2023-07-28T04:47:10;8.98;;;5.35;;
51840;SDS011;37888;53.246;6.658;2023-07-28T04:49:36;10.80;;;5.60;;
51840;SDS011;37888;53.246;6.658;2023-07-28T04:52:02;15.13;;;6.70;;
51840;SDS011;37888;53.246;6.658;2023-07-28T04:54:30;13.77;;;6.75;;
51840;SDS011;37888;53.246;6.658;2023-07-28T04:56:58;12.35;;;6.00;;
51840;SDS011;37888;53.246;6.658;2023-07-28T04:59:29;12.25;;;6.03;;
51840;SDS011;37888;53.246;6.658;2023-07-28T05:01:58;11.20;;;5.78;;
51840;SDS011;37888;53.246;6.658;2023-07-28T05:04:24;7.95;;;5.13;;
51840;SDS011;37888;53.246;6.658;2023-07-28T05:06:50;11.53;;;5.60;;
51840;SDS011;37888;53.246;6.658;2023-07-28T05:09:16;8.52;;;5.43;;
51840;SDS011;37888;53.246;6.658;2023-07-28T05:11:45;9.07;;;5.40;;
51840;SDS011;37888;53.246;6.658;2023-07-28T05:14:13;10.88;;;6.00;;
51840;SDS011;37888;53.246;6.658;2023-07-28T05:16:39;9.88;;;5.40;;
51840;SDS011;37888;53.246;6.658;2023-07-28T05:19:08;10.02;;;5.32;;
51840;SDS011;37888;53.246;6.658;2023-07-28T05:21:34;8.93;;;4.97;;
51840;SDS011;37888;53.246;6.658;2023-07-28T05:24:00;7.82;;;5.00;;
51840;SDS011;37888;53.246;6.658;2023-07-28T05:26:26;9.18;;;5.53;;
51840;SDS011;37888;53.246;6.658;2023-07-28T05:28:52;10.20;;;5.70;;
51840;SDS011;37888;53.246;6.658;2023-07-28T05:31:20;6.25;;;5.10;;
51840;SDS011;37888;53.246;6.658;2023-07-28T05:33:46;10.15;;;5.53;;
51840;SDS011;37888;53.246;6.658;2023-07-28T05:36:12;6.90;;;4.80;;
51840;SDS011;37888;53.246;6.658;2023-07-28T05:38:38;10.02;;;5.60;;
51840;SDS011;37888;53.246;6.658;2023-07-28T05:41:10;9.90;;;5.70;;
51840;SDS011;37888;53.246;6.658;2023-07-28T05:43:42;8.55;;;5.07;;
51840;SDS011;37888;53.246;6.658;2023-07-28T05:46:07;9.75;;;5.68;;
51840;SDS011;37888;53.246;6.658;2023-07-28T05:48:36;10.05;;;5.38;;
51840;SDS011;37888;53.246;6.658;2023-07-28T05:51:08;8.20;;;4.47;;
51840;SDS011;37888;53.246;6.658;2023-07-28T05:53:34;6.88;;;4.22;;
51840;SDS011;37888;53.246;6.658;2023-07-28T05:56:08;10.65;;;4.55;;
51840;SDS011;37888;53.246;6.658;2023-07-28T05:58:40;7.07;;;4.22;;
51840;SDS011;37888;53.246;6.658;2023-07-28T06:01:06;6.40;;;4.30;;
51840;SDS011;37888;53.246;6.658;2023-07-28T06:03:34;7.05;;;4.15;;
51840;SDS011;37888;53.246;6.658;2023-07-28T06:06:03;7.13;;;3.80;;
51840;SDS011;37888;53.246;6.658;2023-07-28T06:08:51;6.10;;;4.50;;
51840;SDS011;37888;53.246;6.658;2023-07-28T06:11:16;6.07;;;4.18;;
51840;SDS011;37888;53.246;6.658;2023-07-28T06:13:42;8.07;;;4.22;;
51840;SDS011;37888;53.246;6.658;2023-07-28T06:16:08;6.15;;;3.90;;
51840;SDS011;37888;53.246;6.658;2023-07-28T06:18:34;8.35;;;4.40;;
51840;SDS011;37888;53.246;6.658;2023-07-28T06:20:59;6.70;;;4.03;;
51840;SDS011;37888;53.246;6.658;2023-07-28T06:23:28;6.05;;;4.28;;
51840;SDS011;37888;53.246;6.658;2023-07-28T06:25:54;7.93;;;4.60;;
51840;SDS011;37888;53.246;6.658;2023-07-28T06:28:20;4.43;;;3.75;;
51840;SDS011;37888;53.246;6.658;2023-07-28T06:30:46;7.17;;;4.10;;
51840;SDS011;37888;53.246;6.658;2023-07-28T06:33:12;8.32;;;4.00;;
51840;SDS011;37888;53.246;6.658;2023-07-28T06:35:38;6.43;;;3.90;;
51840;SDS011;37888;53.246;6.658;2023-07-28T06:38:04;6.40;;;4.60;;
51840;SDS011;37888;53.246;6.658;2023-07-28T06:40:32;5.60;;;3.90;;
51840;SDS011;37888;53.246;6.658;2023-07-28T06:43:04;6.93;;;4.22;;
51840;SDS011;37888;53.246;6.658;2023-07-28T06:46:01;5.15;;;4.30;;
51840;SDS011;37888;53.246;6.658;2023-07-28T06:49:30;6.40;;;4.78;;
51840;SDS011;37888;53.246;6.658;2023-07-28T06:51:57;6.95;;;4.43;;
51840;SDS011;37888;53.246;6.658;2023-07-28T06:54:23;6.15;;;5.40;;
51840;SDS011;37888;53.246;6.658;2023-07-28T06:56:49;5.70;;;4.85;;
51840;SDS011;37888;53.246;6.658;2023-07-28T06:59:16;6.15;;;5.55;;
51840;SDS011;37888;53.246;6.658;2023-07-28T07:01:46;7.47;;;5.70;;
51840;SDS011;37888;53.246;6.658;2023-07-28T07:19:15;5.10;;;4.70;;
51840;SDS011;37888;53.246;6.658;2023-07-28T07:29:35;3.50;;;3.08;;
51840;SDS011;37888;53.246;6.658;2023-07-28T07:39:16;4.22;;;3.08;;
51840;SDS011;37888;53.246;6.658;2023-07-28T07:42:09;3.85;;;3.05;;
51840;SDS011;37888;53.246;6.658;2023-07-28T07:45:50;3.60;;;3.30;;
51840;SDS011;37888;53.246;6.658;2023-07-28T07:49:12;4.10;;;3.55;;
51840;SDS011;37888;53.246;6.658;2023-07-28T07:51:51;3.35;;;3.05;;
51840;SDS011;37888;53.246;6.658;2023-07-28T07:54:17;3.08;;;2.70;;
51840;SDS011;37888;53.246;6.658;2023-07-28T07:56:43;3.88;;;3.05;;
51840;SDS011;37888;53.246;6.658;2023-07-28T07:59:24;4.72;;;2.70;;
51840;SDS011;37888;53.246;6.658;2023-07-28T08:01:53;3.13;;;2.30;;
51840;SDS011;37888;53.246;6.658;2023-07-28T08:04:21;3.28;;;2.60;;
51840;SDS011;37888;53.246;6.658;2023-07-28T08:06:47;5.40;;;3.10;;
51840;SDS011;37888;53.246;6.658;2023-07-28T08:09:13;3.28;;;2.90;;
51840;SDS011;37888;53.246;6.658;2023-07-28T08:11:39;3.45;;;3.00;;
51840;SDS011;37888;53.246;6.658;2023-07-28T08:14:05;4.40;;;2.97;;
51840;SDS011;37888;53.246;6.658;2023-07-28T08:16:30;3.33;;;2.78;;
51840;SDS011;37888;53.246;6.658;2023-07-28T08:18:56;2.75;;;2.40;;
51840;SDS011;37888;53.246;6.658;2023-07-28T08:21:22;3.97;;;2.53;;
51840;SDS011;37888;53.246;6.658;2023-07-28T08:23:48;2.92;;;2.55;;
51840;SDS011;37888;53.246;6.658;2023-07-28T08:26:13;4.22;;;2.90;;
51840;SDS011;37888;53.246;6.658;2023-07-28T08:28:39;3.55;;;2.60;;
51840;SDS011;37888;53.246;6.658;2023-07-28T08:31:05;3.95;;;2.25;;
51840;SDS011;37888;53.246;6.658;2023-07-28T08:33:31;3.65;;;2.70;;
51840;SDS011;37888;53.246;6.658;2023-07-28T08:35:57;3.00;;;2.75;;
51840;SDS011;37888;53.246;6.658;2023-07-28T08:38:23;2.80;;;2.55;;
51840;SDS011;37888;53.246;6.658;2023-07-28T08:40:48;3.00;;;2.70;;
51840;SDS011;37888;53.246;6.658;2023-07-28T08:43:14;4.57;;;3.33;;
51840;SDS011;37888;53.246;6.658;2023-07-28T08:45:40;3.13;;;2.70;;
51840;SDS011;37888;53.246;6.658;2023-07-28T08:48:06;4.18;;;3.10;;
51840;SDS011;37888;53.246;6.658;2023-07-28T08:50:31;4.13;;;3.13;;
51840;SDS011;37888;53.246;6.658;2023-07-28T08:52:58;3.63;;;2.85;;
51840;SDS011;37888;53.246;6.658;2023-07-28T08:55:24;3.30;;;3.00;;
51840;SDS011;37888;53.246;6.658;2023-07-28T08:57:50;3.85;;;2.90;;
51840;SDS011;37888;53.246;6.658;2023-07-28T09:00:16;3.08;;;2.53;;
51840;SDS011;37888;53.246;6.658;2023-07-28T09:02:48;2.90;;;2.50;;
51840;SDS011;37888;53.246;6.658;2023-07-28T09:05:19;2.58;;;2.20;;
51840;SDS011;37888;53.246;6.658;2023-07-28T09:07:46;2.70;;;2.30;;
51840;SDS011;37888;53.246;6.658;2023-07-28T09:10:12;2.92;;;2.35;;
51840;SDS011;37888;53.246;6.658;2023-07-28T09:12:48;3.45;;;2.28;;
51840;SDS011;37888;53.246;6.658;2023-07-28T09:15:15;2.53;;;2.10;;
51840;SDS011;37888;53.246;6.658;2023-07-28T09:17:44;2.45;;;1.90;;
51840;SDS011;37888;53.246;6.658;2023-07-28T09:20:17;1.98;;;1.50;;
51840;SDS011;37888;53.246;6.658;2023-07-28T09:22:43;2.63;;;1.98;;
51840;SDS011;37888;53.246;6.658;2023-07-28T09:25:13;2.13;;;1.92;;
51840;SDS011;37888;53.246;6.658;2023-07-28T09:27:40;2.22;;;1.85;;
51840;SDS011;37888;53.246;6.658;2023-07-28T09:30:16;1.58;;;1.48;;
51840;SDS011;37888;53.246;6.658;2023-07-28T09:32:46;2.90;;;1.80;;
51840;SDS011;37888;53.246;6.658;2023-07-28T09:35:16;2.15;;;1.40;;
51840;SDS011;37888;53.246;6.658;2023-07-28T09:37:46;2.25;;;1.60;;
51840;SDS011;37888;53.246;6.658;2023-07-28T09:40:14;2.05;;;1.83;;
51840;SDS011;37888;53.246;6.658;2023-07-28T09:42:42;2.10;;;1.90;;
51840;SDS011;37888;53.246;6.658;2023-07-28T09:45:10;2.22;;;2.03;;
51840;SDS011;37888;53.246;6.658;2023-07-28T09:47:38;3.42;;;1.95;;
51840;SDS011;37888;53.246;6.658;2023-07-28T09:50:05;2.65;;;2.10;;
51840;SDS011;37888;53.246;6.658;2023-07-28T09:52:37;2.17;;;1.80;;
51840;SDS011;37888;53.246;6.658;2023-07-28T09:55:08;1.77;;;1.67;;
51840;SDS011;37888;53.246;6.658;2023-07-28T09:57:39;3.15;;;2.00;;
51840;SDS011;37888;53.246;6.658;2023-07-28T10:00:15;3.63;;;1.90;;
51840;SDS011;37888;53.246;6.658;2023-07-28T10:02:42;2.17;;;1.58;;
51840;SDS011;37888;53.246;6.658;2023-07-28T10:05:09;3.15;;;1.15;;
51840;SDS011;37888;53.246;6.658;2023-07-28T10:07:36;1.33;;;1.23;;
51840;SDS011;37888;53.246;6.658;2023-07-28T10:10:07;1.38;;;1.27;;
51840;SDS011;37888;53.246;6.658;2023-07-28T10:15:14;2.25;;;1.40;;
51840;SDS011;37888;53.246;6.658;2023-07-28T10:17:50;1.02;;;0.90;;
51840;SDS011;37888;53.246;6.658;2023-07-28T10:20:39;2.05;;;1.00;;
51840;SDS011;37888;53.246;6.658;2023-07-28T10:25:37;2.17;;;1.10;;
51840;SDS011;37888;53.246;6.658;2023-07-28T10:28:07;1.25;;;1.02;;
51840;SDS011;37888;53.246;6.658;2023-07-28T10:30:57;1.55;;;1.05;;
51840;SDS011;37888;53.246;6.658;2023-07-28T10:33:32;1.58;;;1.10;;
51840;SDS011;37888;53.246;6.658;2023-07-28T10:36:44;2.05;;;1.30;;
51840;SDS011;37888;53.246;6.658;2023-07-28T10:38:44;2.33;;;1.25;;
51840;SDS011;37888;53.246;6.658;2023-07-28T10:41:14;1.40;;;1.30;;
51840;SDS011;37888;53.246;6.658;2023-07-28T10:43:42;2.35;;;1.67;;
51840;SDS011;37888;53.246;6.658;2023-07-28T10:46:27;1.70;;;1.58;;
51840;SDS011;37888;53.246;6.658;2023-07-28T10:49:34;2.47;;;1.70;;
51840;SDS011;37888;53.246;6.658;2023-07-28T10:52:00;1.92;;;1.63;;
51840;SDS011;37888;53.246;6.658;2023-07-28T10:54:28;2.13;;;1.92;;
51840;SDS011;37888;53.246;6.658;2023-07-28T10:56:56;2.45;;;1.90;;
51840;SDS011;37888;53.246;6.658;2023-07-28T10:59:27;3.28;;;2.08;;
51840;SDS011;37888;53.246;6.658;2023-07-28T11:01:56;2.38;;;1.98;;
51840;SDS011;37888;53.246;6.658;2023-07-28T11:04:22;3.03;;;1.52;;
51840;SDS011;37888;53.246;6.658;2023-07-28T11:06:53;1.85;;;1.40;;
51840;SDS011;37888;53.246;6.658;2023-07-28T11:09:19;2.60;;;1.40;;
51840;SDS011;37888;53.246;6.658;2023-07-28T11:11:48;2.47;;;1.40;;
51840;SDS011;37888;53.246;6.658;2023-07-28T11:14:15;1.60;;;1.40;;
51840;SDS011;37888;53.246;6.658;2023-07-28T11:16:42;1.98;;;1.00;;
51840;SDS011;37888;53.246;6.658;2023-07-28T11:19:13;1.30;;;1.10;;
51840;SDS011;37888;53.246;6.658;2023-07-28T11:21:39;1.67;;;1.00;;
51840;SDS011;37888;53.246;6.658;2023-07-28T11:24:06;1.20;;;1.10;;
51840;SDS011;37888;53.246;6.658;2023-07-28T11:26:34;3.38;;;1.30;;
51840;SDS011;37888;53.246;6.658;2023-07-28T11:29:01;1.83;;;1.23;;
51840;SDS011;37888;53.246;6.658;2023-07-28T11:31:28;1.85;;;1.45;;
51840;SDS011;37888;53.246;6.658;2023-07-28T11:33:54;1.20;;;1.10;;
51840;SDS011;37888;53.246;6.658;2023-07-28T11:36:27;2.13;;;0.88;;
51840;SDS011;37888;53.246;6.658;2023-07-28T11:38:55;1.85;;;1.30;;
51840;SDS011;37888;53.246;6.658;2023-07-28T11:41:23;1.40;;;0.98;;
51840;SDS011;37888;53.246;6.658;2023-07-28T11:43:50;1.65;;;1.00;;
51840;SDS011;37888;53.246;6.658;2023-07-28T11:46:50;1.27;;;1.13;;
51840;SDS011;37888;53.246;6.658;2023-07-28T11:49:18;2.40;;;1.10;;
51840;SDS011;37888;53.246;6.658;2023-07-28T11:51:48;3.20;;;1.00;;
51840;SDS011;37888;53.246;6.658;2023-07-28T11:54:15;2.00;;;1.05;;
51840;SDS011;37888;53.246;6.658;2023-07-28T11:56:45;1.55;;;0.80;;
51840;SDS011;37888;53.246;6.658;2023-07-28T11:59:12;1.10;;;0.80;;
51840;SDS011;37888;53.246;6.658;2023-07-28T12:01:51;3.83;;;1.33;;
51840;SDS011;37888;53.246;6.658;2023-07-28T12:04:22;2.33;;;0.63;;
51840;SDS011;37888;53.246;6.658;2023-07-28T12:10:02;1.48;;;0.80;;
51840;SDS011;37888;53.246;6.658;2023-07-28T12:12:44;1.10;;;0.90;;
51840;SDS011;37888;53.246;6.658;2023-07-28T12:15:18;1.70;;;0.95;;
51840;SDS011;37888;53.246;6.658;2023-07-28T12:20:37;1.95;;;1.10;;
51840;SDS011;37888;53.246;6.658;2023-07-28T12:23:12;1.48;;;1.05;;
51840;SDS011;37888;53.246;6.658;2023-07-28T12:25:39;1.33;;;0.80;;
51840;SDS011;37888;53.246;6.658;2023-07-28T12:28:05;0.85;;;0.82;;
51840;SDS011;37888;53.246;6.658;2023-07-28T12:30:32;1.53;;;0.90;;
51840;SDS011;37888;53.246;6.658;2023-07-28T12:32:58;2.05;;;0.77;;
51840;SDS011;37888;53.246;6.658;2023-07-28T12:35:27;1.58;;;0.98;;
51840;SDS011;37888;53.246;6.658;2023-07-28T12:38:03;1.52;;;1.08;;
51840;SDS011;37888;53.246;6.658;2023-07-28T12:40:30;1.20;;;1.10;;
51840;SDS011;37888;53.246;6.658;2023-07-28T12:43:02;2.28;;;1.20;;
51840;SDS011;37888;53.246;6.658;2023-07-28T12:45:29;1.00;;;0.90;;
51840;SDS011;37888;53.246;6.658;2023-07-28T12:47:55;1.63;;;0.82;;
51840;SDS011;37888;53.246;6.658;2023-07-28T12:50:24;2.13;;;0.88;;
51840;SDS011;37888;53.246;6.658;2023-07-28T12:52:50;1.60;;;1.00;;
51840;SDS011;37888;53.246;6.658;2023-07-28T12:55:17;1.63;;;0.93;;
51840;SDS011;37888;53.246;6.658;2023-07-28T13:00:09;1.20;;;1.10;;
51840;SDS011;37888;53.246;6.658;2023-07-28T13:02:39;1.13;;;0.73;;
51840;SDS011;37888;53.246;6.658;2023-07-28T13:05:06;1.08;;;0.90;;
51840;SDS011;37888;53.246;6.658;2023-07-28T13:07:33;0.63;;;0.60;;
51840;SDS011;37888;53.246;6.658;2023-07-28T13:09:58;2.17;;;0.90;;
51840;SDS011;37888;53.246;6.658;2023-07-28T13:12:24;0.70;;;0.68;;
51840;SDS011;37888;53.246;6.658;2023-07-28T13:14:50;1.20;;;0.77;;
51840;SDS011;37888;53.246;6.658;2023-07-28T13:17:15;1.17;;;0.75;;
51840;SDS011;37888;53.246;6.658;2023-07-28T13:19:41;1.20;;;0.85;;
51840;SDS011;37888;53.246;6.658;2023-07-28T13:22:07;1.07;;;0.80;;
51840;SDS011;37888;53.246;6.658;2023-07-28T13:24:33;1.23;;;0.80;;
51840;SDS011;37888;53.246;6.658;2023-07-28T13:26:59;1.38;;;0.73;;
51840;SDS011;37888;53.246;6.658;2023-07-28T13:29:25;0.93;;;0.52;;
51840;SDS011;37888;53.246;6.658;2023-07-28T13:31:51;2.42;;;1.00;;
51840;SDS011;37888;53.246;6.658;2023-07-28T13:34:22;1.20;;;1.00;;
51840;SDS011;37888;53.246;6.658;2023-07-28T13:36:48;0.93;;;0.80;;
51840;SDS011;37888;53.246;6.658;2023-07-28T13:39:14;1.67;;;0.80;;
51840;SDS011;37888;53.246;6.658;2023-07-28T13:42:01;2.60;;;1.08;;
51840;SDS011;37888;53.246;6.658;2023-07-28T13:44:27;0.80;;;0.70;;
51840;SDS011;37888;53.246;6.658;2023-07-28T13:46:53;2.92;;;0.80;;
51840;SDS011;37888;53.246;6.658;2023-07-28T13:49:18;0.95;;;0.50;;
51840;SDS011;37888;53.246;6.658;2023-07-28T13:51:47;0.90;;;0.70;;
51840;SDS011;37888;53.246;6.658;2023-07-28T13:54:14;2.85;;;0.60;;
51840;SDS011;37888;53.246;6.658;2023-07-28T13:56:39;0.93;;;0.70;;
51840;SDS011;37888;53.246;6.658;2023-07-28T13:59:08;1.20;;;0.88;;
51840;SDS011;37888;53.246;6.658;2023-07-28T14:02:00;1.80;;;1.10;;
51840;SDS011;37888;53.246;6.658;2023-07-28T14:04:28;1.48;;;1.20;;
51840;SDS011;37888;53.246;6.658;2023-07-28T14:09:49;2.67;;;1.50;;
51840;SDS011;37888;53.246;6.658;2023-07-28T14:12:17;1.48;;;1.13;;
51840;SDS011;37888;53.246;6.658;2023-07-28T14:14:43;3.03;;;1.27;;
51840;SDS011;37888;53.246;6.658;2023-07-28T14:17:09;1.43;;;1.23;;
51840;SDS011;37888;53.246;6.658;2023-07-28T14:19:40;2.58;;;1.17;;
51840;SDS011;37888;53.246;6.658;2023-07-28T14:22:07;1.73;;;1.23;;
51840;SDS011;37888;53.246;6.658;2023-07-28T14:30:54;2.13;;;1.20;;
51840;SDS011;37888;53.246;6.658;2023-07-28T14:33:36;2.45;;;1.42;;
51840;SDS011;37888;53.246;6.658;2023-07-28T14:47:37;1.17;;;1.00;;
51840;SDS011;37888;53.246;6.658;2023-07-28T14:50:03;1.70;;;0.88;;
51840;SDS011;37888;53.246;6.658;2023-07-28T14:52:32;1.30;;;0.85;;
51840;SDS011;37888;53.246;6.658;2023-07-28T14:54:58;1.50;;;0.80;;
51840;SDS011;37888;53.246;6.658;2023-07-28T14:57:24;1.43;;;0.90;;
51840;SDS011;37888;53.246;6.658;2023-07-28T14:59:50;1.25;;;0.68;;
51840;SDS011;37888;53.246;6.658;2023-07-28T15:02:16;1.23;;;0.80;;
51840;SDS011;37888;53.246;6.658;2023-07-28T15:04:42;1.33;;;0.88;;
51840;SDS011;37888;53.246;6.658;2023-07-28T15:07:10;1.15;;;0.90;;
51840;SDS011;37888;53.246;6.658;2023-07-28T15:09:36;1.52;;;0.90;;
51840;SDS011;37888;53.246;6.658;2023-07-28T15:12:01;2.10;;;1.00;;
51840;SDS011;37888;53.246;6.658;2023-07-28T15:14:27;1.93;;;1.10;;
51840;SDS011;37888;53.246;6.658;2023-07-28T15:16:53;1.47;;;0.73;;
51840;SDS011;37888;53.246;6.658;2023-07-28T15:19:19;1.27;;;0.88;;
51840;SDS011;37888;53.246;6.658;2023-07-28T15:21:45;1.17;;;0.90;;
51840;SDS011;37888;53.246;6.658;2023-07-28T15:24:11;2.63;;;1.40;;
51840;SDS011;37888;53.246;6.658;2023-07-28T15:26:40;2.22;;;1.13;;
51840;SDS011;37888;53.246;6.658;2023-07-28T15:29:12;2.63;;;1.00;;
51840;SDS011;37888;53.246;6.658;2023-07-28T15:31:38;1.77;;;1.47;;
51840;SDS011;37888;53.246;6.658;2023-07-28T15:34:04;2.50;;;1.20;;
51840;SDS011;37888;53.246;6.658;2023-07-28T15:36:32;1.80;;;1.50;;
51840;SDS011;37888;53.246;6.658;2023-07-28T15:38:57;2.58;;;1.70;;
51840;SDS011;37888;53.246;6.658;2023-07-28T15:41:24;2.23;;;1.43;;
51840;SDS011;37888;53.246;6.658;2023-07-28T15:43:50;1.87;;;1.33;;
51840;SDS011;37888;53.246;6.658;2023-07-28T15:46:15;2.20;;;1.63;;
51840;SDS011;37888;53.246;6.658;2023-07-28T15:48:41;1.40;;;1.30;;
51840;SDS011;37888;53.246;6.658;2023-07-28T15:51:08;2.33;;;1.30;;
51840;SDS011;37888;53.246;6.658;2023-07-28T15:53:34;1.58;;;0.95;;
51840;SDS011;37888;53.246;6.658;2023-07-28T15:56:00;1.17;;;1.02;;
51840;SDS011;37888;53.246;6.658;2023-07-28T15:58:26;1.38;;;1.17;;
51840;SDS011;37888;53.246;6.658;2023-07-28T16:00:51;1.00;;;0.90;;
51840;SDS011;37888;53.246;6.658;2023-07-28T16:03:17;2.15;;;1.05;;